Kingstowne, Virginia
Current Conditions -  °F | °C
As of 1:58 AM on Tuesday 21 Oct 2014 (Local Time) from KDAA Reporting Station
Overcast Overcast  
Wind Chill: 53°   Ceiling: 12000
Heat Index: 53°   Visibility: 10mi
Dew Point: 51°   Wind: 0mph
Humidity: 96%   Direction: NA
Pressure: 29.91"   Gusts: NA
Location:  38.755°N, 77.1496°W
Report Text: KDAA 210558Z AUTO 00000KT 10SM FEW080 OVC120 11/11 A2991 RMK AO2 RAB0504E0513 SLP132 P0000 60002 T01140108 10131 20114 57022
Loading
Personal Weather Stations






























Interactive Weather Map
Tropical Storm Tracking
New forecast layout! Learn more

10-Day Weather Forecast

Advertisements
Track Severe Weather on mobile